sensor_id;sensor_type;location;lat;lon;timestamp;temperature;humidity
8928;DHT22;4499;48.304;11.902;2023-04-03T00:01:16;2.50;99.90
8928;DHT22;4499;48.304;11.902;2023-04-03T00:03:44;2.50;99.90
8928;DHT22;4499;48.304;11.902;2023-04-03T00:06:13;2.50;99.90
8928;DHT22;4499;48.304;11.902;2023-04-03T00:08:43;2.60;99.90
8928;DHT22;4499;48.304;11.902;2023-04-03T00:11:12;2.60;99.90
8928;DHT22;4499;48.304;11.902;2023-04-03T00:13:40;2.60;99.90
8928;DHT22;4499;48.304;11.902;2023-04-03T00:16:09;2.60;99.90
8928;DHT22;4499;48.304;11.902;2023-04-03T00:18:39;2.60;99.90
8928;DHT22;4499;48.304;11.902;2023-04-03T00:21:08;2.60;99.90
8928;DHT22;4499;48.304;11.902;2023-04-03T00:23:38;2.60;99.90
8928;DHT22;4499;48.304;11.902;2023-04-03T00:26:07;2.60;99.90
8928;DHT22;4499;48.304;11.902;2023-04-03T00:28:35;2.60;99.90
8928;DHT22;4499;48.304;11.902;2023-04-03T00:31:03;2.60;99.90
8928;DHT22;4499;48.304;11.902;2023-04-03T00:33:32;2.60;99.90
8928;DHT22;4499;48.304;11.902;2023-04-03T00:36:05;2.50;99.90
8928;DHT22;4499;48.304;11.902;2023-04-03T00:38:34;2.60;99.90
8928;DHT22;4499;48.304;11.902;2023-04-03T00:41:02;2.60;99.90
8928;DHT22;4499;48.304;11.902;2023-04-03T00:43:32;2.60;99.90
8928;DHT22;4499;48.304;11.902;2023-04-03T00:46:00;2.60;99.90
8928;DHT22;4499;48.304;11.902;2023-04-03T00:48:34;2.50;99.90
8928;DHT22;4499;48.304;11.902;2023-04-03T00:51:04;2.50;99.90
8928;DHT22;4499;48.304;11.902;2023-04-03T00:53:37;2.50;99.90
8928;DHT22;4499;48.304;11.902;2023-04-03T00:56:08;2.60;99.90
8928;DHT22;4499;48.304;11.902;2023-04-03T00:58:41;2.60;99.90
8928;DHT22;4499;48.304;11.902;2023-04-03T01:01:15;2.60;99.90
8928;DHT22;4499;48.304;11.902;2023-04-03T01:03:44;2.60;99.90
8928;DHT22;4499;48.304;11.902;2023-04-03T01:06:14;2.60;99.90
8928;DHT22;4499;48.304;11.902;2023-04-03T01:08:44;2.60;99.90
8928;DHT22;4499;48.304;11.902;2023-04-03T01:11:13;2.60;99.90
8928;DHT22;4499;48.304;11.902;2023-04-03T01:13:43;2.60;99.90
8928;DHT22;4499;48.304;11.902;2023-04-03T01:16:11;2.60;99.90
8928;DHT22;4499;48.304;11.902;2023-04-03T01:18:40;2.60;99.90
8928;DHT22;4499;48.304;11.902;2023-04-03T01:24:20;2.60;99.90
8928;DHT22;4499;48.304;11.902;2023-04-03T01:26:48;2.50;99.90
8928;DHT22;4499;48.304;11.902;2023-04-03T01:29:18;2.50;99.90
8928;DHT22;4499;48.304;11.902;2023-04-03T01:31:50;2.50;99.90
8928;DHT22;4499;48.304;11.902;2023-04-03T01:34:19;2.50;99.90
8928;DHT22;4499;48.304;11.902;2023-04-03T01:36:47;2.40;99.90
8928;DHT22;4499;48.304;11.902;2023-04-03T01:39:15;2.40;99.90
8928;DHT22;4499;48.304;11.902;2023-04-03T01:41:45;2.50;99.90
8928;DHT22;4499;48.304;11.902;2023-04-03T01:44:13;2.50;99.90
8928;DHT22;4499;48.304;11.902;2023-04-03T01:46:42;2.50;99.90
8928;DHT22;4499;48.304;11.902;2023-04-03T01:49:11;2.50;99.90
8928;DHT22;4499;48.304;11.902;2023-04-03T01:51:39;2.50;99.90
8928;DHT22;4499;48.304;11.902;2023-04-03T01:54:08;2.50;99.90
8928;DHT22;4499;48.304;11.902;2023-04-03T01:56:36;2.50;99.90
8928;DHT22;4499;48.304;11.902;2023-04-03T01:59:05;2.50;99.90
8928;DHT22;4499;48.304;11.902;2023-04-03T02:01:33;2.50;99.90
8928;DHT22;4499;48.304;11.902;2023-04-03T02:04:01;2.50;99.90
8928;DHT22;4499;48.304;11.902;2023-04-03T02:06:31;2.50;99.90
8928;DHT22;4499;48.304;11.902;2023-04-03T02:08:59;2.50;99.90
8928;DHT22;4499;48.304;11.902;2023-04-03T02:11:27;2.50;99.90
8928;DHT22;4499;48.304;11.902;2023-04-03T02:13:55;2.50;99.90
8928;DHT22;4499;48.304;11.902;2023-04-03T02:16:23;2.50;99.90
8928;DHT22;4499;48.304;11.902;2023-04-03T02:18:51;2.50;99.90
8928;DHT22;4499;48.304;11.902;2023-04-03T02:21:19;2.50;99.90
8928;DHT22;4499;48.304;11.902;2023-04-03T02:23:49;2.50;99.90
8928;DHT22;4499;48.304;11.902;2023-04-03T02:26:17;2.50;99.90
8928;DHT22;4499;48.304;11.902;2023-04-03T02:28:45;2.50;99.90
8928;DHT22;4499;48.304;11.902;2023-04-03T02:31:14;2.50;99.90
8928;DHT22;4499;48.304;11.902;2023-04-03T02:33:42;2.40;99.90
8928;DHT22;4499;48.304;11.902;2023-04-03T02:36:10;2.40;99.90
8928;DHT22;4499;48.304;11.902;2023-04-03T02:38:38;2.40;99.90
8928;DHT22;4499;48.304;11.902;2023-04-03T02:41:10;2.40;99.90
8928;DHT22;4499;48.304;11.902;2023-04-03T02:43:39;2.40;99.90
8928;DHT22;4499;48.304;11.902;2023-04-03T02:46:08;2.40;99.90
8928;DHT22;4499;48.304;11.902;2023-04-03T02:48:36;2.40;99.90
8928;DHT22;4499;48.304;11.902;2023-04-03T02:51:04;2.40;99.90
8928;DHT22;4499;48.304;11.902;2023-04-03T02:53:32;2.40;99.90
8928;DHT22;4499;48.304;11.902;2023-04-03T02:56:01;2.30;99.90
8928;DHT22;4499;48.304;11.902;2023-04-03T02:58:30;2.30;99.90
8928;DHT22;4499;48.304;11.902;2023-04-03T03:00:58;2.40;99.90
8928;DHT22;4499;48.304;11.902;2023-04-03T03:03:26;2.30;99.90
8928;DHT22;4499;48.304;11.902;2023-04-03T03:06:02;2.30;99.90
8928;DHT22;4499;48.304;11.902;2023-04-03T03:08:30;2.30;99.90
8928;DHT22;4499;48.304;11.902;2023-04-03T03:10:58;2.40;99.90
8928;DHT22;4499;48.304;11.902;2023-04-03T03:13:27;2.30;99.90
8928;DHT22;4499;48.304;11.902;2023-04-03T03:15:56;2.30;99.90
8928;DHT22;4499;48.304;11.902;2023-04-03T03:18:24;2.30;99.90
8928;DHT22;4499;48.304;11.902;2023-04-03T03:20:53;2.30;99.90
8928;DHT22;4499;48.304;11.902;2023-04-03T03:23:23;2.30;99.90
8928;DHT22;4499;48.304;11.902;2023-04-03T03:25:55;2.20;99.90
8928;DHT22;4499;48.304;11.902;2023-04-03T03:28:23;2.20;99.90
8928;DHT22;4499;48.304;11.902;2023-04-03T03:30:52;2.20;99.90
8928;DHT22;4499;48.304;11.902;2023-04-03T03:33:21;2.20;99.90
8928;DHT22;4499;48.304;11.902;2023-04-03T03:35:49;2.20;99.90
8928;DHT22;4499;48.304;11.902;2023-04-03T03:38:18;2.30;99.90
8928;DHT22;4499;48.304;11.902;2023-04-03T03:40:47;2.30;99.90
8928;DHT22;4499;48.304;11.902;2023-04-03T03:43:15;2.30;99.90
8928;DHT22;4499;48.304;11.902;2023-04-03T03:45:44;2.30;99.90
8928;DHT22;4499;48.304;11.902;2023-04-03T03:48:13;2.30;99.90
8928;DHT22;4499;48.304;11.902;2023-04-03T03:50:42;2.20;99.90
8928;DHT22;4499;48.304;11.902;2023-04-03T03:53:10;2.20;99.90
8928;DHT22;4499;48.304;11.902;2023-04-03T03:55:38;2.30;99.90
8928;DHT22;4499;48.304;11.902;2023-04-03T03:58:07;2.30;99.90
8928;DHT22;4499;48.304;11.902;2023-04-03T04:00:35;2.30;99.90
8928;DHT22;4499;48.304;11.902;2023-04-03T04:03:03;2.30;99.90
8928;DHT22;4499;48.304;11.902;2023-04-03T04:05:31;2.30;99.90
8928;DHT22;4499;48.304;11.902;2023-04-03T04:08:00;2.30;99.90
8928;DHT22;4499;48.304;11.902;2023-04-03T04:10:31;2.30;99.90
8928;DHT22;4499;48.304;11.902;2023-04-03T04:12:59;2.30;99.90
8928;DHT22;4499;48.304;11.902;2023-04-03T04:15:27;2.30;99.90
8928;DHT22;4499;48.304;11.902;2023-04-03T04:17:55;2.20;99.90
8928;DHT22;4499;48.304;11.902;2023-04-03T04:20:23;2.20;99.90
8928;DHT22;4499;48.304;11.902;2023-04-03T04:22:52;2.20;99.90
8928;DHT22;4499;48.304;11.902;2023-04-03T04:25:21;2.10;99.90
8928;DHT22;4499;48.304;11.902;2023-04-03T04:27:49;2.10;99.90
8928;DHT22;4499;48.304;11.902;2023-04-03T04:30:17;2.10;99.90
8928;DHT22;4499;48.304;11.902;2023-04-03T04:32:45;2.10;99.90
8928;DHT22;4499;48.304;11.902;2023-04-03T04:35:14;2.20;99.90
8928;DHT22;4499;48.304;11.902;2023-04-03T04:37:42;2.20;99.90
8928;DHT22;4499;48.304;11.902;2023-04-03T04:40:11;2.10;99.90
8928;DHT22;4499;48.304;11.902;2023-04-03T04:42:41;2.10;99.90
8928;DHT22;4499;48.304;11.902;2023-04-03T04:45:09;2.20;99.90
8928;DHT22;4499;48.304;11.902;2023-04-03T04:47:38;2.20;99.90
8928;DHT22;4499;48.304;11.902;2023-04-03T04:50:07;2.20;99.90
8928;DHT22;4499;48.304;11.902;2023-04-03T04:52:35;2.20;99.90
8928;DHT22;4499;48.304;11.902;2023-04-03T04:55:04;2.20;99.90
8928;DHT22;4499;48.304;11.902;2023-04-03T04:57:32;2.20;99.90
8928;DHT22;4499;48.304;11.902;2023-04-03T05:00:04;2.20;99.90
8928;DHT22;4499;48.304;11.902;2023-04-03T05:02:33;2.10;99.90
8928;DHT22;4499;48.304;11.902;2023-04-03T05:05:01;2.10;99.90
8928;DHT22;4499;48.304;11.902;2023-04-03T05:07:31;2.10;99.90
8928;DHT22;4499;48.304;11.902;2023-04-03T05:09:59;2.10;99.90
8928;DHT22;4499;48.304;11.902;2023-04-03T05:12:27;2.10;99.90
8928;DHT22;4499;48.304;11.902;2023-04-03T05:14:55;2.10;99.90
8928;DHT22;4499;48.304;11.902;2023-04-03T05:17:25;2.10;99.90
8928;DHT22;4499;48.304;11.902;2023-04-03T05:19:53;2.10;99.90
8928;DHT22;4499;48.304;11.902;2023-04-03T05:22:21;2.20;99.90
8928;DHT22;4499;48.304;11.902;2023-04-03T05:24:52;2.20;99.90
8928;DHT22;4499;48.304;11.902;2023-04-03T05:27:20;2.20;99.90
8928;DHT22;4499;48.304;11.902;2023-04-03T05:29:50;2.20;99.90
8928;DHT22;4499;48.304;11.902;2023-04-03T05:32:18;2.20;99.90
8928;DHT22;4499;48.304;11.902;2023-04-03T05:34:48;2.30;99.90
8928;DHT22;4499;48.304;11.902;2023-04-03T05:37:16;2.30;99.90
8928;DHT22;4499;48.304;11.902;2023-04-03T05:39:44;2.30;99.90
8928;DHT22;4499;48.304;11.902;2023-04-03T05:42:12;2.40;99.90
8928;DHT22;4499;48.304;11.902;2023-04-03T05:44:40;2.40;99.90
8928;DHT22;4499;48.304;11.902;2023-04-03T05:47:08;2.40;99.90
8928;DHT22;4499;48.304;11.902;2023-04-03T05:49:36;2.40;99.90
8928;DHT22;4499;48.304;11.902;2023-04-03T05:52:16;2.50;99.90
8928;DHT22;4499;48.304;11.902;2023-04-03T05:54:45;2.50;99.90
8928;DHT22;4499;48.304;11.902;2023-04-03T05:57:15;2.50;99.90
8928;DHT22;4499;48.304;11.902;2023-04-03T05:59:45;2.60;99.90
8928;DHT22;4499;48.304;11.902;2023-04-03T06:02:16;2.60;99.90
8928;DHT22;4499;48.304;11.902;2023-04-03T06:04:45;2.60;99.90
8928;DHT22;4499;48.304;11.902;2023-04-03T06:07:17;2.60;99.90
8928;DHT22;4499;48.304;11.902;2023-04-03T06:09:49;2.60;99.90
8928;DHT22;4499;48.304;11.902;2023-04-03T06:12:18;2.70;99.90
8928;DHT22;4499;48.304;11.902;2023-04-03T06:14:46;2.70;99.90
8928;DHT22;4499;48.304;11.902;2023-04-03T06:17:14;2.80;99.90
8928;DHT22;4499;48.304;11.902;2023-04-03T06:19:45;2.80;99.90
8928;DHT22;4499;48.304;11.902;2023-04-03T06:22:14;2.80;99.90
8928;DHT22;4499;48.304;11.902;2023-04-03T06:24:43;2.80;99.90
8928;DHT22;4499;48.304;11.902;2023-04-03T06:27:11;2.80;99.90
8928;DHT22;4499;48.304;11.902;2023-04-03T06:29:39;2.80;99.90
8928;DHT22;4499;48.304;11.902;2023-04-03T06:32:07;2.80;99.90
8928;DHT22;4499;48.304;11.902;2023-04-03T06:34:36;3.00;99.90
8928;DHT22;4499;48.304;11.902;2023-04-03T06:37:04;3.00;99.90
8928;DHT22;4499;48.304;11.902;2023-04-03T06:39:32;3.00;99.90
8928;DHT22;4499;48.304;11.902;2023-04-03T06:42:02;3.10;99.90
8928;DHT22;4499;48.304;11.902;2023-04-03T06:44:31;3.20;99.90
8928;DHT22;4499;48.304;11.902;2023-04-03T06:47:00;3.20;99.90
8928;DHT22;4499;48.304;11.902;2023-04-03T06:49:29;3.30;99.90
8928;DHT22;4499;48.304;11.902;2023-04-03T06:51:57;3.30;99.90
8928;DHT22;4499;48.304;11.902;2023-04-03T06:54:28;3.30;99.90
8928;DHT22;4499;48.304;11.902;2023-04-03T06:56:56;3.30;99.90
8928;DHT22;4499;48.304;11.902;2023-04-03T06:59:26;3.40;99.90
8928;DHT22;4499;48.304;11.902;2023-04-03T07:01:54;3.40;99.90
8928;DHT22;4499;48.304;11.902;2023-04-03T07:04:22;3.40;99.90
8928;DHT22;4499;48.304;11.902;2023-04-03T07:06:50;3.50;99.90
8928;DHT22;4499;48.304;11.902;2023-04-03T07:09:19;3.60;99.90
8928;DHT22;4499;48.304;11.902;2023-04-03T07:11:51;3.70;99.90
8928;DHT22;4499;48.304;11.902;2023-04-03T07:14:19;3.70;99.90
8928;DHT22;4499;48.304;11.902;2023-04-03T07:16:49;3.70;99.90
8928;DHT22;4499;48.304;11.902;2023-04-03T07:19:17;3.80;99.90
8928;DHT22;4499;48.304;11.902;2023-04-03T07:21:45;3.80;99.90
8928;DHT22;4499;48.304;11.902;2023-04-03T07:24:15;3.70;99.90
8928;DHT22;4499;48.304;11.902;2023-04-03T07:26:43;3.80;99.90
8928;DHT22;4499;48.304;11.902;2023-04-03T07:29:12;3.80;99.90
8928;DHT22;4499;48.304;11.902;2023-04-03T07:31:41;3.70;99.90
8928;DHT22;4499;48.304;11.902;2023-04-03T07:34:13;3.80;99.90
8928;DHT22;4499;48.304;11.902;2023-04-03T07:36:41;3.90;99.90
8928;DHT22;4499;48.304;11.902;2023-04-03T07:39:09;4.00;99.90
8928;DHT22;4499;48.304;11.902;2023-04-03T07:41:38;3.90;99.90
8928;DHT22;4499;48.304;11.902;2023-04-03T07:44:06;4.10;99.90
8928;DHT22;4499;48.304;11.902;2023-04-03T07:46:36;4.30;99.90
8928;DHT22;4499;48.304;11.902;2023-04-03T07:49:05;4.30;99.90
8928;DHT22;4499;48.304;11.902;2023-04-03T07:51:34;4.40;99.90
8928;DHT22;4499;48.304;11.902;2023-04-03T07:54:03;4.50;99.90
8928;DHT22;4499;48.304;11.902;2023-04-03T07:56:31;4.50;99.90
8928;DHT22;4499;48.304;11.902;2023-04-03T07:59:00;4.60;99.90
8928;DHT22;4499;48.304;11.902;2023-04-03T08:01:28;4.60;99.90
8928;DHT22;4499;48.304;11.902;2023-04-03T08:03:59;4.80;99.90
8928;DHT22;4499;48.304;11.902;2023-04-03T08:06:28;4.90;99.90
8928;DHT22;4499;48.304;11.902;2023-04-03T08:09:14;5.00;99.90
8928;DHT22;4499;48.304;11.902;2023-04-03T08:11:43;5.10;99.90
8928;DHT22;4499;48.304;11.902;2023-04-03T08:14:12;5.20;99.90
8928;DHT22;4499;48.304;11.902;2023-04-03T08:16:44;5.20;99.90
8928;DHT22;4499;48.304;11.902;2023-04-03T08:19:13;5.00;99.90
8928;DHT22;4499;48.304;11.902;2023-04-03T08:21:52;5.10;99.90
8928;DHT22;4499;48.304;11.902;2023-04-03T08:24:22;5.10;99.90
8928;DHT22;4499;48.304;11.902;2023-04-03T08:26:51;5.10;99.90
8928;DHT22;4499;48.304;11.902;2023-04-03T08:29:19;5.10;99.90
8928;DHT22;4499;48.304;11.902;2023-04-03T08:31:47;5.20;99.90
8928;DHT22;4499;48.304;11.902;2023-04-03T08:34:16;5.20;99.90
8928;DHT22;4499;48.304;11.902;2023-04-03T08:36:45;5.30;99.90
8928;DHT22;4499;48.304;11.902;2023-04-03T08:39:13;5.60;99.90
8928;DHT22;4499;48.304;11.902;2023-04-03T08:41:44;5.30;99.90
8928;DHT22;4499;48.304;11.902;2023-04-03T08:44:18;5.50;99.90
8928;DHT22;4499;48.304;11.902;2023-04-03T08:47:02;5.40;99.90
8928;DHT22;4499;48.304;11.902;2023-04-03T08:49:35;5.50;99.90
8928;DHT22;4499;48.304;11.902;2023-04-03T08:52:10;5.40;99.90
8928;DHT22;4499;48.304;11.902;2023-04-03T08:54:49;5.50;99.90
8928;DHT22;4499;48.304;11.902;2023-04-03T08:57:30;5.10;99.90
8928;DHT22;4499;48.304;11.902;2023-04-03T09:00:02;5.00;99.90
8928;DHT22;4499;48.304;11.902;2023-04-03T09:02:34;5.00;99.90
8928;DHT22;4499;48.304;11.902;2023-04-03T09:05:11;5.00;99.90
8928;DHT22;4499;48.304;11.902;2023-04-03T09:07:43;5.20;99.90
8928;DHT22;4499;48.304;11.902;2023-04-03T09:10:20;5.20;99.90
8928;DHT22;4499;48.304;11.902;2023-04-03T09:12:57;5.10;99.90
8928;DHT22;4499;48.304;11.902;2023-04-03T09:15:27;5.10;99.90
8928;DHT22;4499;48.304;11.902;2023-04-03T09:18:09;5.10;99.90
8928;DHT22;4499;48.304;11.902;2023-04-03T09:20:45;5.10;99.90
8928;DHT22;4499;48.304;11.902;2023-04-03T09:23:20;5.00;99.90
8928;DHT22;4499;48.304;11.902;2023-04-03T09:25:51;4.90;99.90
8928;DHT22;4499;48.304;11.902;2023-04-03T09:28:22;4.90;99.90
8928;DHT22;4499;48.304;11.902;2023-04-03T09:30:51;4.70;99.90
8928;DHT22;4499;48.304;11.902;2023-04-03T09:33:20;4.70;99.90
8928;DHT22;4499;48.304;11.902;2023-04-03T09:35:50;4.50;99.90
8928;DHT22;4499;48.304;11.902;2023-04-03T09:38:20;4.50;99.90
8928;DHT22;4499;48.304;11.902;2023-04-03T09:40:50;4.50;99.90
8928;DHT22;4499;48.304;11.902;2023-04-03T09:43:28;4.50;99.90
8928;DHT22;4499;48.304;11.902;2023-04-03T09:46:16;4.40;99.90
8928;DHT22;4499;48.304;11.902;2023-04-03T09:48:51;4.20;99.90
8928;DHT22;4499;48.304;11.902;2023-04-03T09:51:34;4.10;99.90
8928;DHT22;4499;48.304;11.902;2023-04-03T09:54:34;4.10;99.90
8928;DHT22;4499;48.304;11.902;2023-04-03T09:57:08;4.10;99.90
8928;DHT22;4499;48.304;11.902;2023-04-03T09:59:45;4.00;99.90
8928;DHT22;4499;48.304;11.902;2023-04-03T10:02:33;4.00;99.90
8928;DHT22;4499;48.304;11.902;2023-04-03T10:05:03;4.10;99.90
8928;DHT22;4499;48.304;11.902;2023-04-03T10:07:37;4.20;99.90
8928;DHT22;4499;48.304;11.902;2023-04-03T10:10:19;4.20;99.90
8928;DHT22;4499;48.304;11.902;2023-04-03T10:13:03;4.20;99.90
8928;DHT22;4499;48.304;11.902;2023-04-03T10:15:37;4.20;99.90
8928;DHT22;4499;48.304;11.902;2023-04-03T10:18:16;4.20;99.90
8928;DHT22;4499;48.304;11.902;2023-04-03T10:20:51;4.20;99.90
8928;DHT22;4499;48.304;11.902;2023-04-03T10:23:26;4.30;99.90
8928;DHT22;4499;48.304;11.902;2023-04-03T10:26:04;4.30;99.90
8928;DHT22;4499;48.304;11.902;2023-04-03T10:28:45;4.40;99.90
8928;DHT22;4499;48.304;11.902;2023-04-03T10:31:22;4.60;99.90
8928;DHT22;4499;48.304;11.902;2023-04-03T10:33:59;4.70;99.90
8928;DHT22;4499;48.304;11.902;2023-04-03T10:36:40;4.80;99.90
8928;DHT22;4499;48.304;11.902;2023-04-03T10:39:22;4.70;99.90
8928;DHT22;4499;48.304;11.902;2023-04-03T10:42:01;4.90;99.90
8928;DHT22;4499;48.304;11.902;2023-04-03T10:44:55;5.00;99.90
8928;DHT22;4499;48.304;11.902;2023-04-03T10:47:34;5.20;99.90
8928;DHT22;4499;48.304;11.902;2023-04-03T10:50:26;5.30;99.90
8928;DHT22;4499;48.304;11.902;2023-04-03T10:53:03;5.30;99.90
8928;DHT22;4499;48.304;11.902;2023-04-03T10:55:37;5.20;99.90
8928;DHT22;4499;48.304;11.902;2023-04-03T10:58:06;5.40;99.90
8928;DHT22;4499;48.304;11.902;2023-04-03T11:00:45;5.50;99.90
8928;DHT22;4499;48.304;11.902;2023-04-03T11:03:27;5.60;99.90
8928;DHT22;4499;48.304;11.902;2023-04-03T11:06:00;5.60;99.90
8928;DHT22;4499;48.304;11.902;2023-04-03T11:08:33;5.70;99.90
8928;DHT22;4499;48.304;11.902;2023-04-03T11:11:06;5.70;99.90
8928;DHT22;4499;48.304;11.902;2023-04-03T11:13:40;5.90;99.90
8928;DHT22;4499;48.304;11.902;2023-04-03T11:16:15;6.10;99.90
8928;DHT22;4499;48.304;11.902;2023-04-03T11:18:51;6.00;99.90
8928;DHT22;4499;48.304;11.902;2023-04-03T11:21:22;6.20;99.90
8928;DHT22;4499;48.304;11.902;2023-04-03T11:23:56;6.50;99.90
8928;DHT22;4499;48.304;11.902;2023-04-03T11:26:29;6.70;99.90
8928;DHT22;4499;48.304;11.902;2023-04-03T11:29:03;6.70;99.90
8928;DHT22;4499;48.304;11.902;2023-04-03T11:31:41;6.80;99.90
8928;DHT22;4499;48.304;11.902;2023-04-03T11:34:27;7.20;99.90
8928;DHT22;4499;48.304;11.902;2023-04-03T11:37:01;7.40;99.60
8928;DHT22;4499;48.304;11.902;2023-04-03T11:39:34;7.70;97.90
8928;DHT22;4499;48.304;11.902;2023-04-03T11:42:16;8.10;98.40
8928;DHT22;4499;48.304;11.902;2023-04-03T11:44:45;8.00;95.20
8928;DHT22;4499;48.304;11.902;2023-04-03T11:47:45;8.10;95.80
8928;DHT22;4499;48.304;11.902;2023-04-03T11:50:38;8.00;90.40
8928;DHT22;4499;48.304;11.902;2023-04-03T11:53:36;7.90;92.00
8928;DHT22;4499;48.304;11.902;2023-04-03T11:56:28;8.70;96.00
8928;DHT22;4499;48.304;11.902;2023-04-03T11:59:16;8.80;93.20
8928;DHT22;4499;48.304;11.902;2023-04-03T12:01:50;8.50;89.80
8928;DHT22;4499;48.304;11.902;2023-04-03T12:04:20;8.00;90.80
8928;DHT22;4499;48.304;11.902;2023-04-03T12:07:16;7.80;91.60
8928;DHT22;4499;48.304;11.902;2023-04-03T12:09:57;7.70;92.40
8928;DHT22;4499;48.304;11.902;2023-04-03T12:12:39;7.80;92.10
8928;DHT22;4499;48.304;11.902;2023-04-03T12:15:38;7.80;92.50
8928;DHT22;4499;48.304;11.902;2023-04-03T12:18:40;7.90;93.30
8928;DHT22;4499;48.304;11.902;2023-04-03T12:21:10;8.00;90.10
8928;DHT22;4499;48.304;11.902;2023-04-03T12:24:16;8.40;92.70
8928;DHT22;4499;48.304;11.902;2023-04-03T12:27:02;8.20;92.20
8928;DHT22;4499;48.304;11.902;2023-04-03T12:29:34;8.00;90.60
8928;DHT22;4499;48.304;11.902;2023-04-03T12:32:15;7.70;91.00
8928;DHT22;4499;48.304;11.902;2023-04-03T12:35:01;7.50;90.30
8928;DHT22;4499;48.304;11.902;2023-04-03T12:37:43;7.50;92.60
8928;DHT22;4499;48.304;11.902;2023-04-03T12:40:24;7.20;92.40
8928;DHT22;4499;48.304;11.902;2023-04-03T12:43:21;7.30;94.10
8928;DHT22;4499;48.304;11.902;2023-04-03T12:45:59;7.20;93.40
8928;DHT22;4499;48.304;11.902;2023-04-03T12:48:32;7.30;93.80
8928;DHT22;4499;48.304;11.902;2023-04-03T12:51:02;7.10;94.30
8928;DHT22;4499;48.304;11.902;2023-04-03T12:53:33;6.80;93.60
8928;DHT22;4499;48.304;11.902;2023-04-03T12:56:22;6.60;95.10
8928;DHT22;4499;48.304;11.902;2023-04-03T12:58:52;6.70;95.30
8928;DHT22;4499;48.304;11.902;2023-04-03T13:01:23;6.80;95.80
8928;DHT22;4499;48.304;11.902;2023-04-03T13:03:54;6.90;93.00
8928;DHT22;4499;48.304;11.902;2023-04-03T13:06:26;6.70;94.20
8928;DHT22;4499;48.304;11.902;2023-04-03T13:08:56;6.80;95.20
8928;DHT22;4499;48.304;11.902;2023-04-03T13:11:28;6.70;94.30
8928;DHT22;4499;48.304;11.902;2023-04-03T13:14:00;6.50;94.50
8928;DHT22;4499;48.304;11.902;2023-04-03T13:16:29;6.50;92.80
8928;DHT22;4499;48.304;11.902;2023-04-03T13:18:57;6.50;93.40
8928;DHT22;4499;48.304;11.902;2023-04-03T13:21:28;6.40;92.10
8928;DHT22;4499;48.304;11.902;2023-04-03T13:24:00;6.40;93.00
8928;DHT22;4499;48.304;11.902;2023-04-03T13:26:42;6.50;91.40
8928;DHT22;4499;48.304;11.902;2023-04-03T13:29:22;6.40;93.70
8928;DHT22;4499;48.304;11.902;2023-04-03T13:31:57;6.50;93.30
8928;DHT22;4499;48.304;11.902;2023-04-03T13:34:28;6.60;91.90
8928;DHT22;4499;48.304;11.902;2023-04-03T13:37:01;6.70;91.30
8928;DHT22;4499;48.304;11.902;2023-04-03T13:39:32;6.80;92.00
8928;DHT22;4499;48.304;11.902;2023-04-03T13:42:15;6.90;89.60
8928;DHT22;4499;48.304;11.902;2023-04-03T13:44:43;7.10;90.10
8928;DHT22;4499;48.304;11.902;2023-04-03T13:47:18;7.30;86.40
8928;DHT22;4499;48.304;11.902;2023-04-03T13:49:59;7.50;88.30
8928;DHT22;4499;48.304;11.902;2023-04-03T13:52:30;7.70;83.60
8928;DHT22;4499;48.304;11.902;2023-04-03T13:55:17;7.60;81.30
8928;DHT22;4499;48.304;11.902;2023-04-03T13:57:58;7.60;78.90
8928;DHT22;4499;48.304;11.902;2023-04-03T14:00:35;7.40;79.10
8928;DHT22;4499;48.304;11.902;2023-04-03T14:03:16;7.60;81.20
8928;DHT22;4499;48.304;11.902;2023-04-03T14:05:46;8.00;79.00
8928;DHT22;4499;48.304;11.902;2023-04-03T14:08:16;8.00;80.40
8928;DHT22;4499;48.304;11.902;2023-04-03T14:10:52;8.10;80.90
8928;DHT22;4499;48.304;11.902;2023-04-03T14:13:22;8.10;79.20
8928;DHT22;4499;48.304;11.902;2023-04-03T14:15:50;7.80;77.60
8928;DHT22;4499;48.304;11.902;2023-04-03T14:18:22;7.50;78.60
8928;DHT22;4499;48.304;11.902;2023-04-03T14:20:50;7.10;77.60
8928;DHT22;4499;48.304;11.902;2023-04-03T14:23:18;6.80;78.10
8928;DHT22;4499;48.304;11.902;2023-04-03T14:25:46;6.40;79.50
8928;DHT22;4499;48.304;11.902;2023-04-03T14:28:16;6.10;76.70
8928;DHT22;4499;48.304;11.902;2023-04-03T14:30:47;5.90;80.50
8928;DHT22;4499;48.304;11.902;2023-04-03T14:33:19;6.10;81.50
8928;DHT22;4499;48.304;11.902;2023-04-03T14:35:48;6.40;79.80
8928;DHT22;4499;48.304;11.902;2023-04-03T14:38:23;6.80;79.80
8928;DHT22;4499;48.304;11.902;2023-04-03T14:40:54;7.10;79.40
8928;DHT22;4499;48.304;11.902;2023-04-03T14:43:35;7.60;78.90
8928;DHT22;4499;48.304;11.902;2023-04-03T14:46:08;7.50;78.40
8928;DHT22;4499;48.304;11.902;2023-04-03T14:48:37;7.70;78.50
8928;DHT22;4499;48.304;11.902;2023-04-03T14:51:06;7.90;74.70
8928;DHT22;4499;48.304;11.902;2023-04-03T14:53:34;7.90;73.20
8928;DHT22;4499;48.304;11.902;2023-04-03T14:56:11;8.10;78.90
8928;DHT22;4499;48.304;11.902;2023-04-03T14:58:40;8.20;74.70
8928;DHT22;4499;48.304;11.902;2023-04-03T15:01:10;8.20;73.50
8928;DHT22;4499;48.304;11.902;2023-04-03T15:03:40;7.80;72.30
8928;DHT22;4499;48.304;11.902;2023-04-03T15:06:11;7.40;75.80
8928;DHT22;4499;48.304;11.902;2023-04-03T15:08:40;7.00;73.80
8928;DHT22;4499;48.304;11.902;2023-04-03T15:11:11;6.90;75.40
8928;DHT22;4499;48.304;11.902;2023-04-03T15:13:39;7.00;76.00
8928;DHT22;4499;48.304;11.902;2023-04-03T15:16:15;6.70;75.10
8928;DHT22;4499;48.304;11.902;2023-04-03T15:18:45;6.50;75.90
8928;DHT22;4499;48.304;11.902;2023-04-03T15:21:14;6.30;75.70
8928;DHT22;4499;48.304;11.902;2023-04-03T15:23:42;6.20;74.50
8928;DHT22;4499;48.304;11.902;2023-04-03T15:26:10;5.90;77.90
8928;DHT22;4499;48.304;11.902;2023-04-03T15:28:39;5.80;78.50
8928;DHT22;4499;48.304;11.902;2023-04-03T15:31:08;6.20;80.60
8928;DHT22;4499;48.304;11.902;2023-04-03T15:33:38;6.40;83.10
8928;DHT22;4499;48.304;11.902;2023-04-03T15:36:07;6.80;77.90
8928;DHT22;4499;48.304;11.902;2023-04-03T15:38:55;6.90;75.60
8928;DHT22;4499;48.304;11.902;2023-04-03T15:41:24;7.10;76.50
8928;DHT22;4499;48.304;11.902;2023-04-03T15:43:52;7.40;80.60
8928;DHT22;4499;48.304;11.902;2023-04-03T15:46:20;7.40;78.70
8928;DHT22;4499;48.304;11.902;2023-04-03T15:48:50;7.40;75.30
8928;DHT22;4499;48.304;11.902;2023-04-03T15:51:18;7.10;75.40
8928;DHT22;4499;48.304;11.902;2023-04-03T15:53:46;6.70;77.70
8928;DHT22;4499;48.304;11.902;2023-04-03T15:56:15;6.70;79.80
8928;DHT22;4499;48.304;11.902;2023-04-03T15:58:43;6.50;80.70
8928;DHT22;4499;48.304;11.902;2023-04-03T16:01:11;6.10;82.10
8928;DHT22;4499;48.304;11.902;2023-04-03T16:03:40;5.80;81.90
8928;DHT22;4499;48.304;11.902;2023-04-03T16:06:14;5.70;84.70
8928;DHT22;4499;48.304;11.902;2023-04-03T16:08:43;5.50;87.00
8928;DHT22;4499;48.304;11.902;2023-04-03T16:11:11;5.30;89.30
8928;DHT22;4499;48.304;11.902;2023-04-03T16:13:39;5.10;89.40
8928;DHT22;4499;48.304;11.902;2023-04-03T16:16:08;5.00;90.30
8928;DHT22;4499;48.304;11.902;2023-04-03T16:18:37;4.90;91.10
8928;DHT22;4499;48.304;11.902;2023-04-03T16:21:06;4.80;91.80
8928;DHT22;4499;48.304;11.902;2023-04-03T16:23:36;4.70;92.60
8928;DHT22;4499;48.304;11.902;2023-04-03T16:26:04;4.60;92.70
8928;DHT22;4499;48.304;11.902;2023-04-03T16:28:32;4.50;94.20
8928;DHT22;4499;48.304;11.902;2023-04-03T16:31:01;4.40;93.80
8928;DHT22;4499;48.304;11.902;2023-04-03T16:33:30;4.30;94.10
8928;DHT22;4499;48.304;11.902;2023-04-03T16:35:58;4.30;94.90